This is the latest recevied weather packets stored in our database for station/object KQ4OSL. If no packets are shown the sender has not sent any weather packets the latest 1 day(s).
| Time | Temp. | Humidity | Pressure | Rain* | Wind** | Luminosity | Snow |
|---|---|---|---|---|---|---|---|
| 1778094357 | 23.33° C | 82% | 1016.8 hPa | 0 mm | - | 72 W/m² | - |
| 1778094054 | 23.33° C | 82% | 1016.9 hPa | 0 mm | - | 68 W/m² | - |
| 1778093751 | 23.89° C | 80% | 1016.5 hPa | 0 mm | - | 102 W/m² | - |
| 1778093145 | 24.44° C | 80% | 1016.4 hPa | 0 mm | - | 252 W/m² | - |
| 1778092538 | 25° C | 78% | 1016.5 hPa | 0 mm | - | 345 W/m² | - |
| 1778092235 | 25° C | 78% | 1016.5 hPa | 0 mm | - | 732 W/m² | - |
| 1778090417 | 23.89° C | 79% | 1016.4 hPa | 0 mm | - | 138 W/m² | - |
| 1778085873 | 25° C | 75% | 1016.5 hPa | 0 mm | - | 446 W/m² | - |
| 1778085266 | 24.44° C | 78% | 1016.9 hPa | 0 mm | - | 773 W/m² | - |
| 1778084356 | 23.89° C | 79% | 1017 hPa | 0 mm | - | 482 W/m² | - |
| 1778083448 | 23.89° C | 81% | 1017 hPa | 0 mm | - | 267 W/m² | - |
| 1778083146 | 23.33° C | 80% | 1017.2 hPa | 0 mm | - | 805 W/m² | - |
| 1778081417 | 22.78° C | 83% | 1017.5 hPa | 0 mm | - | 591 W/m² | - |
| 1778080812 | 21.67° C | 86% | 1017.5 hPa | 0 mm | - | 207 W/m² | - |
| 1778078690 | 20.56° C | 88% | 1018 hPa | 0 mm | - | 197 W/m² | - |
| 1778077481 | 20° C | 89% | 1018.1 hPa | 0 mm | - | 159 W/m² | - |
| 1778076271 | 20° C | 90% | 1017.9 hPa | 0 mm | - | 98 W/m² | - |
| 1778075968 | 20° C | 90% | 1017.8 hPa | 0 mm | - | 88 W/m² | - |
| 1778074755 | 19.44° C | 90% | 1017.2 hPa | 0 mm | - | 121 W/m² | - |
| 1778072331 | 18.89° C | 90% | 1016.4 hPa | 0 mm | - | 89 W/m² | - |
| 1778071727 | 18.89° C | 90% | 1016.3 hPa | 0 mm | - | 78 W/m² | - |
| 1778068096 | 18.33° C | 94% | 1016.1 hPa | 0 mm | - | 25 W/m² | - |
| 1778067794 | 18.89° C | 94% | 1016 hPa | 0 mm | - | 21 W/m² | - |
| 1778067492 | 18.89° C | 93% | 1016.2 hPa | 0 mm | - | 19 W/m² | - |
| 1778065069 | 18.33° C | 95% | 1015.4 hPa | 0 mm | - | 4 W/m² | - |
* Rain latest hour (hover to see other rain measurements)
** Current wind speed in m/s (hover to see current wind gust speed)